Terminal Aerodrome Forecast
Issued by NWS Quad Cities IA IL

Home | Current Version | Previous Version | Text Only | Print | Product List | Glossary On
Versions: 1 2 3 4 5 6 7 8 9 10 11 12 13 14 15 16 17 18 19 20 21 22 23 24 25 26 27 28 29 30 31 32 33 34
084
FTUS43 KDVN 210535 CCA
TAFMLI
TAF COR
KMLI 210535Z 2106/2206 10005KT 1/2SM FG OVC003
      TEMPO 2106/2110 1SM -RADZ BR OVC004
     FM211100 14007KT 2SM BR OVC004
     FM211300 17007KT 4SM BR OVC006
     FM211800 22010KT P6SM BKN020
     FM220200 24006KT 4SM BR SCT005=

USA.gov is the U.S. government's official web portal to all federal, state and local government web resources and services.